Aviation Digital Data Service (ADDS)

Output produced by METARs form (0236 UTC 22 July 2017)
found at http://www.aviationweather.gov/adds/metars/
 
OJAQ 220000Z 36012KT CAVOK 31/21 Q1006 NOSIG
TAF OJAQ 212250Z 2200/2306 01015KT 7000 NSC
       
OJAM 220200Z 31004KT 5000 HZ NSC 24/14 Q1011 NOSIG
TAF OJAM 212250Z 2200/2306 VRB02KT 5000 HZ NSC 
     BECMG 2208/2210 29012KT
       
OJAI 220200Z 25005KT CAVOK 22/14 Q1011 NOSIG
TAF OJAI 212250Z 2200/2306 VRB02KT 7000 NSC 
     BECMG 2208/2210 30014KT
       
OJAM 220200Z 31004KT 5000 HZ NSC 24/14 Q1011 NOSIG
TAF OJAM 212250Z 2200/2306 VRB02KT 5000 HZ NSC 
     BECMG 2208/2210 29012KT
       
OJAQ 220000Z 36012KT CAVOK 31/21 Q1006 NOSIG
TAF OJAQ 212250Z 2200/2306 01015KT 7000 NSC
       
OJAI 220200Z 25005KT CAVOK 22/14 Q1011 NOSIG
TAF OJAI 212250Z 2200/2306 VRB02KT 7000 NSC 
     BECMG 2208/2210 30014KT